sensor_id;sensor_type;location;lat;lon;timestamp;temperature;humidity
31003;DHT22;23051;-6.372;106.786;2023-06-14T00:01:14;28.00;80.20
31003;DHT22;23051;-6.372;106.786;2023-06-14T00:03:18;27.90;80.10
31003;DHT22;23051;-6.372;106.786;2023-06-14T00:05:27;27.90;80.10
31003;DHT22;23051;-6.372;106.786;2023-06-14T00:07:35;28.00;80.20
31003;DHT22;23051;-6.372;106.786;2023-06-14T00:09:45;28.00;80.10
31003;DHT22;23051;-6.372;106.786;2023-06-14T00:11:51;28.00;80.10
31003;DHT22;23051;-6.372;106.786;2023-06-14T00:13:53;28.00;80.20
31003;DHT22;23051;-6.372;106.786;2023-06-14T00:15:57;28.00;80.20
31003;DHT22;23051;-6.372;106.786;2023-06-14T00:18:01;28.00;80.00
31003;DHT22;23051;-6.372;106.786;2023-06-14T00:22:12;28.00;80.00
31003;DHT22;23051;-6.372;106.786;2023-06-14T00:24:16;28.00;80.00
31003;DHT22;23051;-6.372;106.786;2023-06-14T00:26:22;28.00;79.90
31003;DHT22;23051;-6.372;106.786;2023-06-14T00:28:29;28.10;80.00
31003;DHT22;23051;-6.372;106.786;2023-06-14T00:30:35;28.10;79.90
31003;DHT22;23051;-6.372;106.786;2023-06-14T00:32:39;28.10;80.70
31003;DHT22;23051;-6.372;106.786;2023-06-14T00:34:43;28.10;79.90
31003;DHT22;23051;-6.372;106.786;2023-06-14T00:36:50;28.10;79.90
31003;DHT22;23051;-6.372;106.786;2023-06-14T00:38:54;28.10;79.90
31003;DHT22;23051;-6.372;106.786;2023-06-14T00:41:00;28.10;79.80
31003;DHT22;23051;-6.372;106.786;2023-06-14T00:43:02;28.10;79.80
31003;DHT22;23051;-6.372;106.786;2023-06-14T00:45:06;28.20;79.80
31003;DHT22;23051;-6.372;106.786;2023-06-14T00:47:09;28.20;79.80
31003;DHT22;23051;-6.372;106.786;2023-06-14T00:49:11;28.20;79.80
31003;DHT22;23051;-6.372;106.786;2023-06-14T00:51:14;28.20;79.60
31003;DHT22;23051;-6.372;106.786;2023-06-14T00:53:18;28.30;79.70
31003;DHT22;23051;-6.372;106.786;2023-06-14T00:55:25;28.30;79.60
31003;DHT22;23051;-6.372;106.786;2023-06-14T00:57:29;28.30;79.50
31003;DHT22;23051;-6.372;106.786;2023-06-14T00:59:31;28.40;79.50
31003;DHT22;23051;-6.372;106.786;2023-06-14T01:01:35;28.40;79.50
31003;DHT22;23051;-6.372;106.786;2023-06-14T01:03:37;28.40;79.40
31003;DHT22;23051;-6.372;106.786;2023-06-14T01:05:40;28.50;79.30
31003;DHT22;23051;-6.372;106.786;2023-06-14T01:07:54;28.50;79.10
31003;DHT22;23051;-6.372;106.786;2023-06-14T01:12:11;28.60;79.00
31003;DHT22;23051;-6.372;106.786;2023-06-14T01:14:16;28.70;79.00
31003;DHT22;23051;-6.372;106.786;2023-06-14T01:16:22;28.70;78.70
31003;DHT22;23051;-6.372;106.786;2023-06-14T01:18:29;28.80;78.70
31003;DHT22;23051;-6.372;106.786;2023-06-14T01:20:32;28.80;78.60
31003;DHT22;23051;-6.372;106.786;2023-06-14T01:22:37;28.90;78.50
31003;DHT22;23051;-6.372;106.786;2023-06-14T01:24:39;28.90;78.40
31003;DHT22;23051;-6.372;106.786;2023-06-14T01:26:48;29.00;78.40
31003;DHT22;23051;-6.372;106.786;2023-06-14T01:28:58;29.00;78.30
31003;DHT22;23051;-6.372;106.786;2023-06-14T01:31:05;29.10;78.30
31003;DHT22;23051;-6.372;106.786;2023-06-14T01:33:11;29.20;78.30
31003;DHT22;23051;-6.372;106.786;2023-06-14T01:35:14;29.20;78.20
31003;DHT22;23051;-6.372;106.786;2023-06-14T01:37:16;29.20;78.10
31003;DHT22;23051;-6.372;106.786;2023-06-14T01:39:21;29.30;78.00
31003;DHT22;23051;-6.372;106.786;2023-06-14T01:41:29;29.30;77.90
31003;DHT22;23051;-6.372;106.786;2023-06-14T01:43:31;29.30;78.70
31003;DHT22;23051;-6.372;106.786;2023-06-14T01:45:37;29.40;77.80
31003;DHT22;23051;-6.372;106.786;2023-06-14T01:47:41;29.40;78.60
31003;DHT22;23051;-6.372;106.786;2023-06-14T01:49:46;29.50;77.70
31003;DHT22;23051;-6.372;106.786;2023-06-14T01:51:50;29.50;77.60
31003;DHT22;23051;-6.372;106.786;2023-06-14T01:53:54;29.60;77.60
31003;DHT22;23051;-6.372;106.786;2023-06-14T01:55:58;29.60;77.40
31003;DHT22;23051;-6.372;106.786;2023-06-14T01:58:02;29.70;77.40
31003;DHT22;23051;-6.372;106.786;2023-06-14T02:00:05;29.70;77.30
31003;DHT22;23051;-6.372;106.786;2023-06-14T02:02:11;29.70;77.20
31003;DHT22;23051;-6.372;106.786;2023-06-14T02:04:17;29.80;77.20
31003;DHT22;23051;-6.372;106.786;2023-06-14T02:06:18;29.90;77.10
31003;DHT22;23051;-6.372;106.786;2023-06-14T02:08:20;30.00;77.00
31003;DHT22;23051;-6.372;106.786;2023-06-14T02:10:22;30.00;76.80
31003;DHT22;23051;-6.372;106.786;2023-06-14T02:12:28;30.10;76.70
31003;DHT22;23051;-6.372;106.786;2023-06-14T02:14:32;30.10;76.60
31003;DHT22;23051;-6.372;106.786;2023-06-14T02:16:36;30.20;76.50
31003;DHT22;23051;-6.372;106.786;2023-06-14T02:18:38;30.30;76.50
31003;DHT22;23051;-6.372;106.786;2023-06-14T02:20:39;30.30;76.40
31003;DHT22;23051;-6.372;106.786;2023-06-14T02:22:45;30.40;76.30
31003;DHT22;23051;-6.372;106.786;2023-06-14T02:24:47;30.40;76.20
31003;DHT22;23051;-6.372;106.786;2023-06-14T02:26:51;30.50;76.20
31003;DHT22;23051;-6.372;106.786;2023-06-14T02:28:55;30.50;76.10
31003;DHT22;23051;-6.372;106.786;2023-06-14T02:31:01;30.60;76.10
31003;DHT22;23051;-6.372;106.786;2023-06-14T02:33:04;30.60;76.00
31003;DHT22;23051;-6.372;106.786;2023-06-14T02:35:09;30.70;75.90
31003;DHT22;23051;-6.372;106.786;2023-06-14T02:37:12;30.70;75.90
31003;DHT22;23051;-6.372;106.786;2023-06-14T02:39:14;30.70;75.80
31003;DHT22;23051;-6.372;106.786;2023-06-14T02:41:16;30.80;75.90
31003;DHT22;23051;-6.372;106.786;2023-06-14T02:43:17;30.80;75.80
31003;DHT22;23051;-6.372;106.786;2023-06-14T02:45:24;30.80;75.70
31003;DHT22;23051;-6.372;106.786;2023-06-14T02:47:28;30.90;75.70
31003;DHT22;23051;-6.372;106.786;2023-06-14T02:49:34;30.90;75.50
31003;DHT22;23051;-6.372;106.786;2023-06-14T02:51:38;31.00;75.50
31003;DHT22;23051;-6.372;106.786;2023-06-14T02:53:46;31.00;75.50
31003;DHT22;23051;-6.372;106.786;2023-06-14T02:55:48;31.10;75.40
31003;DHT22;23051;-6.372;106.786;2023-06-14T02:57:55;31.20;75.30
31003;DHT22;23051;-6.372;106.786;2023-06-14T02:59:59;31.20;75.30
31003;DHT22;23051;-6.372;106.786;2023-06-14T03:02:00;31.20;75.10
31003;DHT22;23051;-6.372;106.786;2023-06-14T03:06:10;31.30;75.10
31003;DHT22;23051;-6.372;106.786;2023-06-14T03:08:20;31.30;75.10
31003;DHT22;23051;-6.372;106.786;2023-06-14T03:10:24;31.40;75.10
31003;DHT22;23051;-6.372;106.786;2023-06-14T03:12:35;31.40;75.00
31003;DHT22;23051;-6.372;106.786;2023-06-14T03:14:41;31.40;75.00
31003;DHT22;23051;-6.372;106.786;2023-06-14T03:16:49;31.40;75.00
31003;DHT22;23051;-6.372;106.786;2023-06-14T03:18:53;31.40;75.00
31003;DHT22;23051;-6.372;106.786;2023-06-14T03:20:57;31.50;75.10
31003;DHT22;23051;-6.372;106.786;2023-06-14T03:23:02;31.50;75.00
31003;DHT22;23051;-6.372;106.786;2023-06-14T03:25:07;31.50;74.90
31003;DHT22;23051;-6.372;106.786;2023-06-14T03:27:10;31.50;74.90
31003;DHT22;23051;-6.372;106.786;2023-06-14T03:29:13;31.60;74.80
31003;DHT22;23051;-6.372;106.786;2023-06-14T03:31:18;31.60;74.80
31003;DHT22;23051;-6.372;106.786;2023-06-14T03:33:22;31.70;74.70
31003;DHT22;23051;-6.372;106.786;2023-06-14T03:35:23;31.80;74.60
31003;DHT22;23051;-6.372;106.786;2023-06-14T03:37:25;31.80;74.40
31003;DHT22;23051;-6.372;106.786;2023-06-14T03:39:32;31.80;74.30
31003;DHT22;23051;-6.372;106.786;2023-06-14T03:41:36;31.90;74.40
31003;DHT22;23051;-6.372;106.786;2023-06-14T03:43:40;31.80;74.30
31003;DHT22;23051;-6.372;106.786;2023-06-14T03:45:44;31.80;74.40
31003;DHT22;23051;-6.372;106.786;2023-06-14T03:47:46;31.80;74.50
31003;DHT22;23051;-6.372;106.786;2023-06-14T03:51:56;31.70;74.70
31003;DHT22;23051;-6.372;106.786;2023-06-14T03:53:57;31.80;74.70
31003;DHT22;23051;-6.372;106.786;2023-06-14T03:56:01;31.80;74.60
31003;DHT22;23051;-6.372;106.786;2023-06-14T03:58:04;31.80;74.60
31003;DHT22;23051;-6.372;106.786;2023-06-14T04:00:09;31.80;74.60
31003;DHT22;23051;-6.372;106.786;2023-06-14T04:02:13;31.80;74.60
31003;DHT22;23051;-6.372;106.786;2023-06-14T04:04:20;31.90;74.60
31003;DHT22;23051;-6.372;106.786;2023-06-14T04:06:35;32.00;74.40
31003;DHT22;23051;-6.372;106.786;2023-06-14T04:08:36;32.00;74.30
31003;DHT22;23051;-6.372;106.786;2023-06-14T04:10:41;32.00;74.40
31003;DHT22;23051;-6.372;106.786;2023-06-14T04:12:45;32.00;74.40
31003;DHT22;23051;-6.372;106.786;2023-06-14T04:14:49;31.90;74.40
31003;DHT22;23051;-6.372;106.786;2023-06-14T04:16:50;31.90;74.60
31003;DHT22;23051;-6.372;106.786;2023-06-14T04:18:54;31.90;74.60
31003;DHT22;23051;-6.372;106.786;2023-06-14T04:20:56;31.80;74.70
31003;DHT22;23051;-6.372;106.786;2023-06-14T04:23:10;31.80;74.80
31003;DHT22;23051;-6.372;106.786;2023-06-14T04:25:15;31.80;74.90
31003;DHT22;23051;-6.372;106.786;2023-06-14T04:27:19;31.80;75.00
31003;DHT22;23051;-6.372;106.786;2023-06-14T04:29:26;31.70;74.90
31003;DHT22;23051;-6.372;106.786;2023-06-14T04:31:31;31.70;74.90
31003;DHT22;23051;-6.372;106.786;2023-06-14T04:33:36;31.70;74.90
31003;DHT22;23051;-6.372;106.786;2023-06-14T04:35:54;31.70;75.00
31003;DHT22;23051;-6.372;106.786;2023-06-14T04:37:57;31.70;75.10
31003;DHT22;23051;-6.372;106.786;2023-06-14T04:40:03;31.60;75.20
31003;DHT22;23051;-6.372;106.786;2023-06-14T04:42:09;31.60;75.30
31003;DHT22;23051;-6.372;106.786;2023-06-14T04:44:14;31.50;75.30
31003;DHT22;23051;-6.372;106.786;2023-06-14T04:46:20;31.50;75.50
31003;DHT22;23051;-6.372;106.786;2023-06-14T04:50:28;31.40;75.60
31003;DHT22;23051;-6.372;106.786;2023-06-14T04:52:32;31.40;76.60
31003;DHT22;23051;-6.372;106.786;2023-06-14T04:54:36;31.30;75.90
31003;DHT22;23051;-6.372;106.786;2023-06-14T04:56:45;31.30;75.90
31003;DHT22;23051;-6.372;106.786;2023-06-14T04:58:52;31.40;75.90
31003;DHT22;23051;-6.372;106.786;2023-06-14T05:00:57;31.40;75.90
31003;DHT22;23051;-6.372;106.786;2023-06-14T05:03:02;31.40;75.90
31003;DHT22;23051;-6.372;106.786;2023-06-14T05:05:09;31.30;75.90
31003;DHT22;23051;-6.372;106.786;2023-06-14T05:07:15;31.30;76.00
31003;DHT22;23051;-6.372;106.786;2023-06-14T05:11:26;31.00;76.50
31003;DHT22;23051;-6.372;106.786;2023-06-14T05:13:30;31.00;76.70
31003;DHT22;23051;-6.372;106.786;2023-06-14T05:15:38;30.90;76.90
31003;DHT22;23051;-6.372;106.786;2023-06-14T05:17:42;30.80;77.10
31003;DHT22;23051;-6.372;106.786;2023-06-14T05:19:45;30.80;77.30
31003;DHT22;23051;-6.372;106.786;2023-06-14T05:21:50;30.70;77.30
31003;DHT22;23051;-6.372;106.786;2023-06-14T05:26:05;30.60;77.50
31003;DHT22;23051;-6.372;106.786;2023-06-14T05:28:10;30.60;77.70
31003;DHT22;23051;-6.372;106.786;2023-06-14T05:32:18;30.50;77.70
31003;DHT22;23051;-6.372;106.786;2023-06-14T05:34:23;30.50;78.50
31003;DHT22;23051;-6.372;106.786;2023-06-14T05:36:27;30.50;77.70
31003;DHT22;23051;-6.372;106.786;2023-06-14T05:38:28;30.60;77.70
31003;DHT22;23051;-6.372;106.786;2023-06-14T05:40:37;30.60;77.50
31003;DHT22;23051;-6.372;106.786;2023-06-14T05:42:42;30.70;77.50
31003;DHT22;23051;-6.372;106.786;2023-06-14T05:44:48;30.70;77.20
31003;DHT22;23051;-6.372;106.786;2023-06-14T05:46:49;30.90;77.10
31003;DHT22;23051;-6.372;106.786;2023-06-14T05:48:51;30.90;76.90
31003;DHT22;23051;-6.372;106.786;2023-06-14T05:51:00;31.00;76.70
31003;DHT22;23051;-6.372;106.786;2023-06-14T05:53:06;31.10;76.50
31003;DHT22;23051;-6.372;106.786;2023-06-14T05:55:13;31.20;76.30
31003;DHT22;23051;-6.372;106.786;2023-06-14T05:57:19;31.30;76.00
31003;DHT22;23051;-6.372;106.786;2023-06-14T05:59:25;31.40;75.80
31003;DHT22;23051;-6.372;106.786;2023-06-14T06:01:27;31.40;75.60
31003;DHT22;23051;-6.372;106.786;2023-06-14T06:03:31;31.50;75.70
31003;DHT22;23051;-6.372;106.786;2023-06-14T06:05:37;31.50;75.70
31003;DHT22;23051;-6.372;106.786;2023-06-14T06:07:44;31.40;75.70
31003;DHT22;23051;-6.372;106.786;2023-06-14T06:09:51;31.40;75.80
31003;DHT22;23051;-6.372;106.786;2023-06-14T06:11:59;31.40;75.90
31003;DHT22;23051;-6.372;106.786;2023-06-14T06:14:03;31.50;75.90
31003;DHT22;23051;-6.372;106.786;2023-06-14T06:16:07;31.50;75.80
31003;DHT22;23051;-6.372;106.786;2023-06-14T06:18:09;31.60;75.60
31003;DHT22;23051;-6.372;106.786;2023-06-14T06:20:11;31.70;75.40
31003;DHT22;23051;-6.372;106.786;2023-06-14T06:22:15;31.80;75.20
31003;DHT22;23051;-6.372;106.786;2023-06-14T06:24:19;31.90;75.00
31003;DHT22;23051;-6.372;106.786;2023-06-14T06:26:25;32.10;74.80
31003;DHT22;23051;-6.372;106.786;2023-06-14T06:28:34;32.20;74.60
31003;DHT22;23051;-6.372;106.786;2023-06-14T06:30:35;32.30;74.30
31003;DHT22;23051;-6.372;106.786;2023-06-14T06:32:42;32.40;74.00
31003;DHT22;23051;-6.372;106.786;2023-06-14T06:34:48;32.60;73.80
31003;DHT22;23051;-6.372;106.786;2023-06-14T06:36:52;32.70;73.50
31003;DHT22;23051;-6.372;106.786;2023-06-14T06:38:56;32.80;73.30
31003;DHT22;23051;-6.372;106.786;2023-06-14T06:41:02;32.90;73.10
31003;DHT22;23051;-6.372;106.786;2023-06-14T06:43:06;33.10;73.00
31003;DHT22;23051;-6.372;106.786;2023-06-14T06:45:12;33.10;72.70
31003;DHT22;23051;-6.372;106.786;2023-06-14T06:47:16;33.10;72.60
31003;DHT22;23051;-6.372;106.786;2023-06-14T06:49:20;33.20;72.80
31003;DHT22;23051;-6.372;106.786;2023-06-14T06:51:26;33.10;72.90
31003;DHT22;23051;-6.372;106.786;2023-06-14T06:53:33;33.00;73.00
31003;DHT22;23051;-6.372;106.786;2023-06-14T06:55:37;33.00;73.20
31003;DHT22;23051;-6.372;106.786;2023-06-14T06:57:38;32.90;73.40
31003;DHT22;23051;-6.372;106.786;2023-06-14T06:59:40;32.80;73.50
31003;DHT22;23051;-6.372;106.786;2023-06-14T07:01:46;32.80;73.70
31003;DHT22;23051;-6.372;106.786;2023-06-14T07:03:50;32.70;73.80
31003;DHT22;23051;-6.372;106.786;2023-06-14T07:05:56;32.70;73.80
31003;DHT22;23051;-6.372;106.786;2023-06-14T07:07:58;32.80;73.90
31003;DHT22;23051;-6.372;106.786;2023-06-14T07:10:05;32.70;73.80
31003;DHT22;23051;-6.372;106.786;2023-06-14T07:14:15;32.70;73.80
31003;DHT22;23051;-6.372;106.786;2023-06-14T07:16:16;32.70;73.90
31003;DHT22;23051;-6.372;106.786;2023-06-14T07:18:21;32.60;73.80
31003;DHT22;23051;-6.372;106.786;2023-06-14T07:20:24;32.60;74.00
31003;DHT22;23051;-6.372;106.786;2023-06-14T07:22:29;32.50;74.20
31003;DHT22;23051;-6.372;106.786;2023-06-14T07:24:32;32.30;74.50
31003;DHT22;23051;-6.372;106.786;2023-06-14T07:26:39;32.20;74.80
31003;DHT22;23051;-6.372;106.786;2023-06-14T07:28:43;32.10;75.00
31003;DHT22;23051;-6.372;106.786;2023-06-14T07:30:50;32.00;75.10
31003;DHT22;23051;-6.372;106.786;2023-06-14T07:32:54;32.00;75.20
31003;DHT22;23051;-6.372;106.786;2023-06-14T07:34:56;32.00;75.20
31003;DHT22;23051;-6.372;106.786;2023-06-14T07:37:00;32.00;75.20
31003;DHT22;23051;-6.372;106.786;2023-06-14T07:39:07;32.00;75.10
31003;DHT22;23051;-6.372;106.786;2023-06-14T07:41:13;32.00;75.10
31003;DHT22;23051;-6.372;106.786;2023-06-14T07:43:17;31.90;75.20
31003;DHT22;23051;-6.372;106.786;2023-06-14T07:45:19;31.80;75.40
31003;DHT22;23051;-6.372;106.786;2023-06-14T07:47:25;31.80;75.60
31003;DHT22;23051;-6.372;106.786;2023-06-14T07:49:27;31.70;75.80
31003;DHT22;23051;-6.372;106.786;2023-06-14T07:51:33;31.60;75.80
31003;DHT22;23051;-6.372;106.786;2023-06-14T07:53:39;31.60;75.80
31003;DHT22;23051;-6.372;106.786;2023-06-14T07:55:40;31.60;75.80
31003;DHT22;23051;-6.372;106.786;2023-06-14T07:57:46;31.70;75.80
31003;DHT22;23051;-6.372;106.786;2023-06-14T08:01:54;31.80;75.60
31003;DHT22;23051;-6.372;106.786;2023-06-14T08:03:58;31.80;75.40
31003;DHT22;23051;-6.372;106.786;2023-06-14T08:06:05;31.80;75.20
31003;DHT22;23051;-6.372;106.786;2023-06-14T08:08:07;31.90;75.00
31003;DHT22;23051;-6.372;106.786;2023-06-14T08:10:13;32.00;74.80
31003;DHT22;23051;-6.372;106.786;2023-06-14T08:12:17;32.20;74.50
31003;DHT22;23051;-6.372;106.786;2023-06-14T08:14:24;32.20;74.20
31003;DHT22;23051;-6.372;106.786;2023-06-14T08:16:31;32.20;74.20
31003;DHT22;23051;-6.372;106.786;2023-06-14T08:18:37;32.30;74.30
31003;DHT22;23051;-6.372;106.786;2023-06-14T08:20:43;32.30;74.10
31003;DHT22;23051;-6.372;106.786;2023-06-14T08:22:48;32.30;74.00
31003;DHT22;23051;-6.372;106.786;2023-06-14T08:24:54;32.30;74.10
31003;DHT22;23051;-6.372;106.786;2023-06-14T08:27:01;32.20;74.20
31003;DHT22;23051;-6.372;106.786;2023-06-14T08:29:09;32.20;74.40
31003;DHT22;23051;-6.372;106.786;2023-06-14T08:31:11;32.10;74.40
31003;DHT22;23051;-6.372;106.786;2023-06-14T08:33:18;32.00;74.70
31003;DHT22;23051;-6.372;106.786;2023-06-14T08:35:24;31.80;75.10
31003;DHT22;23051;-6.372;106.786;2023-06-14T08:37:28;31.60;75.40
31003;DHT22;23051;-6.372;106.786;2023-06-14T08:39:33;31.60;75.60
31003;DHT22;23051;-6.372;106.786;2023-06-14T08:41:37;31.50;75.80
31003;DHT22;23051;-6.372;106.786;2023-06-14T08:43:41;31.40;75.90
31003;DHT22;23051;-6.372;106.786;2023-06-14T08:45:43;31.40;76.00
31003;DHT22;23051;-6.372;106.786;2023-06-14T08:47:48;31.30;76.00
31003;DHT22;23051;-6.372;106.786;2023-06-14T08:49:53;31.30;76.00
31003;DHT22;23051;-6.372;106.786;2023-06-14T08:51:59;31.30;75.90
31003;DHT22;23051;-6.372;106.786;2023-06-14T08:54:07;31.40;75.90
31003;DHT22;23051;-6.372;106.786;2023-06-14T08:56:08;31.50;75.70
31003;DHT22;23051;-6.372;106.786;2023-06-14T08:58:19;31.50;75.60
31003;DHT22;23051;-6.372;106.786;2023-06-14T09:00:22;31.50;75.50
31003;DHT22;23051;-6.372;106.786;2023-06-14T09:02:24;31.50;75.50
31003;DHT22;23051;-6.372;106.786;2023-06-14T09:04:26;31.40;75.60
31003;DHT22;23051;-6.372;106.786;2023-06-14T09:06:30;31.30;75.70
31003;DHT22;23051;-6.372;106.786;2023-06-14T09:08:34;31.30;75.90
31003;DHT22;23051;-6.372;106.786;2023-06-14T09:10:39;31.30;76.00
31003;DHT22;23051;-6.372;106.786;2023-06-14T09:12:43;31.20;76.80
31003;DHT22;23051;-6.372;106.786;2023-06-14T09:14:45;31.20;76.10
31003;DHT22;23051;-6.372;106.786;2023-06-14T09:18:54;31.00;76.30
31003;DHT22;23051;-6.372;106.786;2023-06-14T09:20:56;31.00;76.50
31003;DHT22;23051;-6.372;106.786;2023-06-14T09:23:00;30.90;76.60
31003;DHT22;23051;-6.372;106.786;2023-06-14T09:25:08;30.80;76.80
31003;DHT22;23051;-6.372;106.786;2023-06-14T09:27:17;30.70;77.00
31003;DHT22;23051;-6.372;106.786;2023-06-14T09:29:21;30.60;77.20
31003;DHT22;23051;-6.372;106.786;2023-06-14T09:31:27;30.50;77.40
31003;DHT22;23051;-6.372;106.786;2023-06-14T09:33:35;30.30;77.50
31003;DHT22;23051;-6.372;106.786;2023-06-14T09:35:40;30.30;77.70
31003;DHT22;23051;-6.372;106.786;2023-06-14T09:37:47;30.20;77.90
31003;DHT22;23051;-6.372;106.786;2023-06-14T09:39:53;30.20;78.00
31003;DHT22;23051;-6.372;106.786;2023-06-14T09:41:57;30.10;78.00
31003;DHT22;23051;-6.372;106.786;2023-06-14T09:44:04;30.10;78.20
31003;DHT22;23051;-6.372;106.786;2023-06-14T09:46:09;30.00;78.10
31003;DHT22;23051;-6.372;106.786;2023-06-14T09:48:16;30.00;78.20
31003;DHT22;23051;-6.372;106.786;2023-06-14T09:50:21;29.90;78.20
31003;DHT22;23051;-6.372;106.786;2023-06-14T09:52:23;29.80;78.40
31003;DHT22;23051;-6.372;106.786;2023-06-14T09:54:27;29.80;78.60
31003;DHT22;23051;-6.372;106.786;2023-06-14T09:58:37;29.30;79.30
31003;DHT22;23051;-6.372;106.786;2023-06-14T10:00:40;29.10;79.70
31003;DHT22;23051;-6.372;106.786;2023-06-14T10:02:43;29.00;80.00
31003;DHT22;23051;-6.372;106.786;2023-06-14T10:06:58;28.80;80.60
31003;DHT22;23051;-6.372;106.786;2023-06-14T10:09:04;28.70;80.60
31003;DHT22;23051;-6.372;106.786;2023-06-14T10:11:12;28.70;80.80
31003;DHT22;23051;-6.372;106.786;2023-06-14T10:13:14;28.70;80.90
31003;DHT22;23051;-6.372;106.786;2023-06-14T10:18:31;28.70;80.90
31003;DHT22;23051;-6.372;106.786;2023-06-14T10:20:35;28.60;80.70
31003;DHT22;23051;-6.372;106.786;2023-06-14T10:24:53;28.90;80.40
31003;DHT22;23051;-6.372;106.786;2023-06-14T10:26:59;29.10;79.90
31003;DHT22;23051;-6.372;106.786;2023-06-14T10:29:13;29.30;79.30
31003;DHT22;23051;-6.372;106.786;2023-06-14T10:31:14;29.60;78.80
31003;DHT22;23051;-6.372;106.786;2023-06-14T10:33:23;29.80;78.40
31003;DHT22;23051;-6.372;106.786;2023-06-14T10:35:24;30.00;77.90
31003;DHT22;23051;-6.372;106.786;2023-06-14T10:37:31;30.10;77.50
31003;DHT22;23051;-6.372;106.786;2023-06-14T10:39:44;30.20;77.20
31003;DHT22;23051;-6.372;106.786;2023-06-14T10:41:52;30.40;77.00
31003;DHT22;23051;-6.372;106.786;2023-06-14T10:48:32;30.60;76.70
31003;DHT22;23051;-6.372;106.786;2023-06-14T10:50:36;30.60;76.60
31003;DHT22;23051;-6.372;106.786;2023-06-14T10:52:44;30.60;76.60
31003;DHT22;23051;-6.372;106.786;2023-06-14T10:55:08;30.70;76.70
31003;DHT22;23051;-6.372;106.786;2023-06-14T10:57:11;30.70;76.60
31003;DHT22;23051;-6.372;106.786;2023-06-14T10:59:19;30.70;76.50
31003;DHT22;23051;-6.372;106.786;2023-06-14T11:07:52;30.70;76.50
31003;DHT22;23051;-6.372;106.786;2023-06-14T11:12:10;30.70;76.60
31003;DHT22;23051;-6.372;106.786;2023-06-14T11:14:15;30.70;76.70
31003;DHT22;23051;-6.372;106.786;2023-06-14T11:16:19;30.70;76.70
31003;DHT22;23051;-6.372;106.786;2023-06-14T11:18:26;30.70;76.80
31003;DHT22;23051;-6.372;106.786;2023-06-14T11:20:32;30.60;76.90
31003;DHT22;23051;-6.372;106.786;2023-06-14T11:22:39;30.60;76.90
31003;DHT22;23051;-6.372;106.786;2023-06-14T11:24:44;30.60;77.00
31003;DHT22;23051;-6.372;106.786;2023-06-14T11:26:48;30.60;77.10
31003;DHT22;23051;-6.372;106.786;2023-06-14T11:28:55;30.60;77.10
31003;DHT22;23051;-6.372;106.786;2023-06-14T11:31:07;30.50;77.20
31003;DHT22;23051;-6.372;106.786;2023-06-14T11:33:11;30.50;77.30
31003;DHT22;23051;-6.372;106.786;2023-06-14T11:35:17;30.50;77.30
31003;DHT22;23051;-6.372;106.786;2023-06-14T11:37:21;30.50;77.40
31003;DHT22;23051;-6.372;106.786;2023-06-14T11:39:27;30.40;77.40
31003;DHT22;23051;-6.372;106.786;2023-06-14T11:41:35;30.40;77.50
31003;DHT22;23051;-6.372;106.786;2023-06-14T11:43:44;30.30;77.50
31003;DHT22;23051;-6.372;106.786;2023-06-14T11:45:50;30.30;77.60
31003;DHT22;23051;-6.372;106.786;2023-06-14T11:47:55;30.30;77.60
31003;DHT22;23051;-6.372;106.786;2023-06-14T11:50:02;30.30;77.60
31003;DHT22;23051;-6.372;106.786;2023-06-14T11:52:07;30.30;77.80
31003;DHT22;23051;-6.372;106.786;2023-06-14T11:54:14;30.20;77.80
31003;DHT22;23051;-6.372;106.786;2023-06-14T11:56:16;30.20;77.90
31003;DHT22;23051;-6.372;106.786;2023-06-14T11:58:21;30.30;77.90
31003;DHT22;23051;-6.372;106.786;2023-06-14T12:00:32;30.20;77.80
31003;DHT22;23051;-6.372;106.786;2023-06-14T12:04:37;30.20;77.70
31003;DHT22;23051;-6.372;106.786;2023-06-14T12:06:42;30.20;77.70
31003;DHT22;23051;-6.372;106.786;2023-06-14T12:08:47;30.20;77.70
31003;DHT22;23051;-6.372;106.786;2023-06-14T12:10:55;30.30;77.80
31003;DHT22;23051;-6.372;106.786;2023-06-14T12:13:00;30.30;77.70
31003;DHT22;23051;-6.372;106.786;2023-06-14T12:15:07;30.30;77.60
31003;DHT22;23051;-6.372;106.786;2023-06-14T12:17:11;30.30;77.60
31003;DHT22;23051;-6.372;106.786;2023-06-14T12:19:17;30.30;77.60
31003;DHT22;23051;-6.372;106.786;2023-06-14T12:21:25;30.30;77.60
31003;DHT22;23051;-6.372;106.786;2023-06-14T12:25:38;30.30;77.60
31003;DHT22;23051;-6.372;106.786;2023-06-14T12:27:42;30.10;77.90
31003;DHT22;23051;-6.372;106.786;2023-06-14T12:31:49;29.80;78.70
31003;DHT22;23051;-6.372;106.786;2023-06-14T12:34:00;29.70;79.00
31003;DHT22;23051;-6.372;106.786;2023-06-14T12:36:08;29.50;79.40
31003;DHT22;23051;-6.372;106.786;2023-06-14T12:38:15;29.40;79.50
31003;DHT22;23051;-6.372;106.786;2023-06-14T12:40:20;29.20;79.80
31003;DHT22;23051;-6.372;106.786;2023-06-14T12:42:27;29.00;80.20
31003;DHT22;23051;-6.372;106.786;2023-06-14T12:44:30;29.00;80.50
31003;DHT22;23051;-6.372;106.786;2023-06-14T12:46:37;28.90;80.60
31003;DHT22;23051;-6.372;106.786;2023-06-14T12:48:42;28.80;80.70
31003;DHT22;23051;-6.372;106.786;2023-06-14T12:50:47;28.70;80.80
31003;DHT22;23051;-6.372;106.786;2023-06-14T12:52:51;28.80;80.80
31003;DHT22;23051;-6.372;106.786;2023-06-14T12:54:54;28.80;80.70
31003;DHT22;23051;-6.372;106.786;2023-06-14T12:56:58;28.80;80.70
31003;DHT22;23051;-6.372;106.786;2023-06-14T12:59:04;28.90;80.80
31003;DHT22;23051;-6.372;106.786;2023-06-14T13:01:08;28.80;80.50
31003;DHT22;23051;-6.372;106.786;2023-06-14T13:03:15;28.80;80.50
31003;DHT22;23051;-6.372;106.786;2023-06-14T13:05:19;28.80;80.60
31003;DHT22;23051;-6.372;106.786;2023-06-14T13:07:25;28.80;80.50
31003;DHT22;23051;-6.372;106.786;2023-06-14T13:09:31;28.80;80.60
31003;DHT22;23051;-6.372;106.786;2023-06-14T13:11:36;28.80;80.50
31003;DHT22;23051;-6.372;106.786;2023-06-14T13:13:45;28.80;80.50
31003;DHT22;23051;-6.372;106.786;2023-06-14T13:15:46;28.70;80.60
31003;DHT22;23051;-6.372;106.786;2023-06-14T13:17:51;28.70;80.60
31003;DHT22;23051;-6.372;106.786;2023-06-14T13:19:58;28.70;80.60
31003;DHT22;23051;-6.372;106.786;2023-06-14T13:22:03;28.60;80.60
31003;DHT22;23051;-6.372;106.786;2023-06-14T13:24:11;28.60;80.80
31003;DHT22;23051;-6.372;106.786;2023-06-14T13:26:18;28.60;80.70
31003;DHT22;23051;-6.372;106.786;2023-06-14T13:28:22;28.60;80.70
31003;DHT22;23051;-6.372;106.786;2023-06-14T13:30:28;28.50;80.90
31003;DHT22;23051;-6.372;106.786;2023-06-14T13:32:30;28.40;81.20
31003;DHT22;23051;-6.372;106.786;2023-06-14T13:34:36;28.40;81.30
31003;DHT22;23051;-6.372;106.786;2023-06-14T13:36:41;28.40;81.10
31003;DHT22;23051;-6.372;106.786;2023-06-14T13:38:42;28.40;81.10